sensor_id;sensor_type;location;lat;lon;timestamp;P1;durP1;ratioP1;P2;durP2;ratioP2
22308;SDS011;11322;50.858;-1.778;2023-12-14T00:00:34;3.5;;;1.0;;
22308;SDS011;11322;50.858;-1.778;2023-12-14T00:05:34;2.2;;;1.7;;
22308;SDS011;11322;50.858;-1.778;2023-12-14T00:10:34;14.95;;;1.7;;
22308;SDS011;11322;50.858;-1.778;2023-12-14T00:15:34;0.75;;;0.7;;
22308;SDS011;11322;50.858;-1.778;2023-12-14T00:20:34;1.0;;;0.95;;
22308;SDS011;11322;50.858;-1.778;2023-12-14T00:25:34;1.65;;;1.25;;
22308;SDS011;11322;50.858;-1.778;2023-12-14T00:30:34;4.3;;;0.9;;
22308;SDS011;11322;50.858;-1.778;2023-12-14T00:35:34;2.0;;;0.85;;
22308;SDS011;11322;50.858;-1.778;2023-12-14T00:40:34;0.45;;;0.45;;
22308;SDS011;11322;50.858;-1.778;2023-12-14T00:45:34;0.9;;;0.8;;
22308;SDS011;11322;50.858;-1.778;2023-12-14T00:50:34;0.4;;;0.4;;
22308;SDS011;11322;50.858;-1.778;2023-12-14T00:55:34;0.95;;;0.65;;
22308;SDS011;11322;50.858;-1.778;2023-12-14T01:00:34;0.7;;;0.7;;
22308;SDS011;11322;50.858;-1.778;2023-12-14T01:05:34;1.85;;;1.05;;
22308;SDS011;11322;50.858;-1.778;2023-12-14T01:10:34;6.6;;;1.25;;
22308;SDS011;11322;50.858;-1.778;2023-12-14T01:15:34;0.3;;;0.3;;
22308;SDS011;11322;50.858;-1.778;2023-12-14T01:20:34;1.0;;;0.8;;
22308;SDS011;11322;50.858;-1.778;2023-12-14T01:25:34;0.9;;;0.9;;
22308;SDS011;11322;50.858;-1.778;2023-12-14T01:30:34;0.95;;;0.8;;
22308;SDS011;11322;50.858;-1.778;2023-12-14T01:35:34;1.4;;;1.3;;
22308;SDS011;11322;50.858;-1.778;2023-12-14T01:40:34;1.65;;;1.55;;
22308;SDS011;11322;50.858;-1.778;2023-12-14T01:45:34;2.0;;;1.6;;
22308;SDS011;11322;50.858;-1.778;2023-12-14T01:50:34;1.3;;;0.9;;
22308;SDS011;11322;50.858;-1.778;2023-12-14T01:55:34;1.95;;;1.3;;
22308;SDS011;11322;50.858;-1.778;2023-12-14T02:00:35;6.4;;;1.3;;
22308;SDS011;11322;50.858;-1.778;2023-12-14T02:05:34;2.3;;;1.75;;
22308;SDS011;11322;50.858;-1.778;2023-12-14T02:10:34;0.4;;;0.4;;
22308;SDS011;11322;50.858;-1.778;2023-12-14T02:15:34;0.7;;;0.6;;
22308;SDS011;11322;50.858;-1.778;2023-12-14T02:20:34;1.35;;;0.95;;
22308;SDS011;11322;50.858;-1.778;2023-12-14T02:25:34;1.4;;;1.3;;
22308;SDS011;11322;50.858;-1.778;2023-12-14T02:30:34;4.15;;;1.7;;
22308;SDS011;11322;50.858;-1.778;2023-12-14T02:35:34;0.6;;;0.6;;
22308;SDS011;11322;50.858;-1.778;2023-12-14T02:40:34;1.1;;;1.0;;
22308;SDS011;11322;50.858;-1.778;2023-12-14T02:45:34;0.85;;;0.85;;
22308;SDS011;11322;50.858;-1.778;2023-12-14T02:50:34;3.25;;;1.45;;
22308;SDS011;11322;50.858;-1.778;2023-12-14T02:55:34;1.1;;;0.8;;
22308;SDS011;11322;50.858;-1.778;2023-12-14T03:00:34;4.45;;;0.6;;
22308;SDS011;11322;50.858;-1.778;2023-12-14T03:05:34;5.0;;;1.25;;
22308;SDS011;11322;50.858;-1.778;2023-12-14T03:10:34;0.7;;;0.7;;
22308;SDS011;11322;50.858;-1.778;2023-12-14T03:15:34;1.1;;;1.1;;
22308;SDS011;11322;50.858;-1.778;2023-12-14T03:20:34;1.7;;;1.6;;
22308;SDS011;11322;50.858;-1.778;2023-12-14T03:25:34;2.15;;;0.9;;
22308;SDS011;11322;50.858;-1.778;2023-12-14T03:30:39;0.6;;;0.6;;
22308;SDS011;11322;50.858;-1.778;2023-12-14T03:35:34;0.7;;;0.5;;
22308;SDS011;11322;50.858;-1.778;2023-12-14T03:40:34;1.1;;;1.1;;
22308;SDS011;11322;50.858;-1.778;2023-12-14T03:45:34;0.85;;;0.85;;
22308;SDS011;11322;50.858;-1.778;2023-12-14T03:50:34;1.05;;;0.9;;
22308;SDS011;11322;50.858;-1.778;2023-12-14T03:55:34;0.85;;;0.8;;
22308;SDS011;11322;50.858;-1.778;2023-12-14T04:00:34;0.6;;;0.6;;
22308;SDS011;11322;50.858;-1.778;2023-12-14T04:05:35;0.7;;;0.7;;
22308;SDS011;11322;50.858;-1.778;2023-12-14T04:10:34;1.45;;;1.3;;
22308;SDS011;11322;50.858;-1.778;2023-12-14T04:15:34;1.65;;;1.4;;
22308;SDS011;11322;50.858;-1.778;2023-12-14T04:20:34;1.45;;;1.15;;
22308;SDS011;11322;50.858;-1.778;2023-12-14T04:25:34;1.05;;;1.0;;
22308;SDS011;11322;50.858;-1.778;2023-12-14T04:30:34;1.25;;;1.1;;
22308;SDS011;11322;50.858;-1.778;2023-12-14T04:35:34;3.15;;;1.4;;
22308;SDS011;11322;50.858;-1.778;2023-12-14T04:40:34;1.85;;;1.7;;
22308;SDS011;11322;50.858;-1.778;2023-12-14T04:45:34;3.35;;;1.45;;
22308;SDS011;11322;50.858;-1.778;2023-12-14T04:50:34;2.5;;;1.45;;
22308;SDS011;11322;50.858;-1.778;2023-12-14T04:55:34;2.4;;;0.9;;
22308;SDS011;11322;50.858;-1.778;2023-12-14T05:00:34;1.2;;;0.95;;
22308;SDS011;11322;50.858;-1.778;2023-12-14T05:05:34;0.1;;;0.1;;
22308;SDS011;11322;50.858;-1.778;2023-12-14T05:10:34;1.35;;;1.05;;
22308;SDS011;11322;50.858;-1.778;2023-12-14T05:15:34;1.15;;;1.0;;
22308;SDS011;11322;50.858;-1.778;2023-12-14T05:20:34;2.45;;;2.25;;
22308;SDS011;11322;50.858;-1.778;2023-12-14T05:25:34;1.45;;;1.35;;
22308;SDS011;11322;50.858;-1.778;2023-12-14T05:30:34;2.4;;;1.25;;
22308;SDS011;11322;50.858;-1.778;2023-12-14T05:35:34;5.65;;;2.35;;
22308;SDS011;11322;50.858;-1.778;2023-12-14T05:40:34;6.2;;;1.15;;
22308;SDS011;11322;50.858;-1.778;2023-12-14T05:45:34;2.45;;;1.8;;
22308;SDS011;11322;50.858;-1.778;2023-12-14T05:50:34;6.1;;;2.2;;
22308;SDS011;11322;50.858;-1.778;2023-12-14T05:55:34;2.1;;;1.95;;
22308;SDS011;11322;50.858;-1.778;2023-12-14T06:00:34;1.75;;;1.65;;
22308;SDS011;11322;50.858;-1.778;2023-12-14T06:05:34;2.25;;;2.0;;
22308;SDS011;11322;50.858;-1.778;2023-12-14T06:10:34;3.55;;;1.55;;
22308;SDS011;11322;50.858;-1.778;2023-12-14T06:15:34;4.2;;;1.85;;
22308;SDS011;11322;50.858;-1.778;2023-12-14T06:20:34;2.85;;;1.8;;
22308;SDS011;11322;50.858;-1.778;2023-12-14T06:25:34;7.4;;;2.1;;
22308;SDS011;11322;50.858;-1.778;2023-12-14T06:30:34;3.65;;;2.05;;
22308;SDS011;11322;50.858;-1.778;2023-12-14T06:35:34;3.5;;;2.4;;
22308;SDS011;11322;50.858;-1.778;2023-12-14T06:40:34;2.95;;;1.45;;
22308;SDS011;11322;50.858;-1.778;2023-12-14T06:45:36;9.5;;;2.3;;
22308;SDS011;11322;50.858;-1.778;2023-12-14T06:50:34;1.0;;;0.85;;
22308;SDS011;11322;50.858;-1.778;2023-12-14T06:55:34;4.3;;;2.25;;
22308;SDS011;11322;50.858;-1.778;2023-12-14T07:00:34;2.05;;;1.45;;
22308;SDS011;11322;50.858;-1.778;2023-12-14T07:05:34;1.4;;;0.95;;
22308;SDS011;11322;50.858;-1.778;2023-12-14T07:10:34;1.8;;;1.7;;
22308;SDS011;11322;50.858;-1.778;2023-12-14T07:15:34;1.6;;;1.4;;
22308;SDS011;11322;50.858;-1.778;2023-12-14T07:20:34;0.7;;;0.7;;
22308;SDS011;11322;50.858;-1.778;2023-12-14T07:25:34;2.05;;;1.5;;
22308;SDS011;11322;50.858;-1.778;2023-12-14T07:30:34;2.9;;;1.15;;
22308;SDS011;11322;50.858;-1.778;2023-12-14T07:35:34;1.75;;;0.8;;
22308;SDS011;11322;50.858;-1.778;2023-12-14T07:40:34;1.3;;;1.05;;
22308;SDS011;11322;50.858;-1.778;2023-12-14T07:45:34;2.85;;;1.9;;
22308;SDS011;11322;50.858;-1.778;2023-12-14T07:50:34;1.25;;;0.9;;
22308;SDS011;11322;50.858;-1.778;2023-12-14T07:55:34;0.6;;;0.6;;
22308;SDS011;11322;50.858;-1.778;2023-12-14T08:00:34;2.0;;;1.9;;
22308;SDS011;11322;50.858;-1.778;2023-12-14T08:05:34;7.9;;;2.9;;
22308;SDS011;11322;50.858;-1.778;2023-12-14T08:10:34;5.7;;;2.75;;
22308;SDS011;11322;50.858;-1.778;2023-12-14T08:15:34;1.8;;;1.75;;
22308;SDS011;11322;50.858;-1.778;2023-12-14T08:20:34;3.3;;;1.8;;
22308;SDS011;11322;50.858;-1.778;2023-12-14T08:25:39;2.4;;;1.55;;
22308;SDS011;11322;50.858;-1.778;2023-12-14T08:30:34;1.6;;;0.75;;
22308;SDS011;11322;50.858;-1.778;2023-12-14T08:35:34;5.15;;;2.65;;
22308;SDS011;11322;50.858;-1.778;2023-12-14T08:40:34;1.5;;;1.35;;
22308;SDS011;11322;50.858;-1.778;2023-12-14T08:45:34;1.45;;;1.45;;
22308;SDS011;11322;50.858;-1.778;2023-12-14T08:50:35;3.75;;;1.3;;
22308;SDS011;11322;50.858;-1.778;2023-12-14T08:55:34;4.8;;;2.15;;
22308;SDS011;11322;50.858;-1.778;2023-12-14T09:00:35;10.25;;;2.45;;
22308;SDS011;11322;50.858;-1.778;2023-12-14T09:05:35;1.55;;;1.4;;
22308;SDS011;11322;50.858;-1.778;2023-12-14T09:10:35;1.7;;;1.6;;
22308;SDS011;11322;50.858;-1.778;2023-12-14T09:15:41;2.15;;;1.8;;
22308;SDS011;11322;50.858;-1.778;2023-12-14T09:20:35;1.6;;;1.45;;
22308;SDS011;11322;50.858;-1.778;2023-12-14T09:25:37;1.1;;;1.1;;
22308;SDS011;11322;50.858;-1.778;2023-12-14T09:30:34;1.5;;;1.45;;
22308;SDS011;11322;50.858;-1.778;2023-12-14T09:35:34;1.2;;;1.15;;
22308;SDS011;11322;50.858;-1.778;2023-12-14T09:45:34;6.35;;;2.25;;
22308;SDS011;11322;50.858;-1.778;2023-12-14T09:50:34;2.1;;;1.95;;
22308;SDS011;11322;50.858;-1.778;2023-12-14T09:55:38;1.95;;;1.5;;
22308;SDS011;11322;50.858;-1.778;2023-12-14T10:00:34;1.65;;;1.25;;
22308;SDS011;11322;50.858;-1.778;2023-12-14T10:05:34;1.95;;;1.35;;
22308;SDS011;11322;50.858;-1.778;2023-12-14T10:10:34;4.2;;;1.35;;
22308;SDS011;11322;50.858;-1.778;2023-12-14T10:15:40;2.4;;;1.45;;
22308;SDS011;11322;50.858;-1.778;2023-12-14T10:20:34;1.8;;;1.7;;
22308;SDS011;11322;50.858;-1.778;2023-12-14T10:25:34;4.5;;;2.6;;
22308;SDS011;11322;50.858;-1.778;2023-12-14T10:30:34;3.25;;;2.15;;
22308;SDS011;11322;50.858;-1.778;2023-12-14T10:35:34;2.45;;;2.25;;
22308;SDS011;11322;50.858;-1.778;2023-12-14T10:40:34;5.6;;;1.75;;
22308;SDS011;11322;50.858;-1.778;2023-12-14T10:45:34;3.75;;;2.35;;
22308;SDS011;11322;50.858;-1.778;2023-12-14T10:50:34;6.9;;;4.4;;
22308;SDS011;11322;50.858;-1.778;2023-12-14T10:55:36;2.4;;;2.05;;
22308;SDS011;11322;50.858;-1.778;2023-12-14T11:00:34;1.3;;;1.2;;
22308;SDS011;11322;50.858;-1.778;2023-12-14T11:05:34;4.45;;;3.2;;
22308;SDS011;11322;50.858;-1.778;2023-12-14T11:10:36;3.7;;;2.65;;
22308;SDS011;11322;50.858;-1.778;2023-12-14T11:15:34;2.7;;;1.7;;
22308;SDS011;11322;50.858;-1.778;2023-12-14T11:20:39;5.05;;;1.9;;
22308;SDS011;11322;50.858;-1.778;2023-12-14T11:25:34;1.8;;;1.7;;
22308;SDS011;11322;50.858;-1.778;2023-12-14T11:30:35;3.5;;;2.65;;
22308;SDS011;11322;50.858;-1.778;2023-12-14T11:35:34;7.4;;;5.1;;
22308;SDS011;11322;50.858;-1.778;2023-12-14T11:40:34;3.8;;;3.45;;
22308;SDS011;11322;50.858;-1.778;2023-12-14T11:45:34;6.85;;;3.45;;
22308;SDS011;11322;50.858;-1.778;2023-12-14T11:50:34;3.5;;;3.2;;
22308;SDS011;11322;50.858;-1.778;2023-12-14T11:55:35;5.75;;;3.4;;
22308;SDS011;11322;50.858;-1.778;2023-12-14T12:00:34;2.25;;;1.85;;
22308;SDS011;11322;50.858;-1.778;2023-12-14T12:05:35;1.6;;;1.5;;
22308;SDS011;11322;50.858;-1.778;2023-12-14T12:11:39;7.6;;;2.9;;
22308;SDS011;11322;50.858;-1.778;2023-12-14T12:15:34;6.35;;;1.5;;
22308;SDS011;11322;50.858;-1.778;2023-12-14T12:20:34;1.25;;;1.2;;
22308;SDS011;11322;50.858;-1.778;2023-12-14T12:25:34;1.25;;;1.15;;
22308;SDS011;11322;50.858;-1.778;2023-12-14T12:30:34;7.4;;;1.7;;
22308;SDS011;11322;50.858;-1.778;2023-12-14T12:32:16;16.7;;;5.0;;
22308;SDS011;11322;50.858;-1.778;2023-12-14T12:35:32;18.3;;;6.2;;
22308;SDS011;11322;50.858;-1.778;2023-12-14T12:40:32;14.6;;;5.9;;
22308;SDS011;11322;50.858;-1.778;2023-12-14T12:50:34;8.15;;;3.55;;
22308;SDS011;11322;50.858;-1.778;2023-12-14T12:55:34;9.95;;;5.05;;
22308;SDS011;11322;50.858;-1.778;2023-12-14T13:00:34;9.1;;;4.25;;
22308;SDS011;11322;50.858;-1.778;2023-12-14T13:05:34;8.0;;;6.35;;
22308;SDS011;11322;50.858;-1.778;2023-12-14T13:10:34;9.25;;;3.9;;
22308;SDS011;11322;50.858;-1.778;2023-12-14T13:15:34;25.85;;;7.35;;
22308;SDS011;11322;50.858;-1.778;2023-12-14T13:20:34;5.4;;;3.65;;
22308;SDS011;11322;50.858;-1.778;2023-12-14T13:25:34;2.4;;;2.25;;
22308;SDS011;11322;50.858;-1.778;2023-12-14T13:30:34;1.95;;;1.85;;
22308;SDS011;11322;50.858;-1.778;2023-12-14T13:35:34;27.2;;;10.25;;
22308;SDS011;11322;50.858;-1.778;2023-12-14T13:40:34;0.9;;;0.85;;
22308;SDS011;11322;50.858;-1.778;2023-12-14T13:45:34;1.85;;;1.75;;
22308;SDS011;11322;50.858;-1.778;2023-12-14T13:50:34;11.7;;;2.65;;
22308;SDS011;11322;50.858;-1.778;2023-12-14T13:55:34;7.85;;;3.3;;
22308;SDS011;11322;50.858;-1.778;2023-12-14T14:00:34;4.25;;;2.9;;
22308;SDS011;11322;50.858;-1.778;2023-12-14T14:05:34;18.75;;;11.15;;
22308;SDS011;11322;50.858;-1.778;2023-12-14T14:10:34;5.5;;;3.1;;
22308;SDS011;11322;50.858;-1.778;2023-12-14T14:15:34;4.7;;;4.1;;
22308;SDS011;11322;50.858;-1.778;2023-12-14T14:20:34;2.75;;;2.55;;
22308;SDS011;11322;50.858;-1.778;2023-12-14T14:25:34;1.1;;;1.05;;
22308;SDS011;11322;50.858;-1.778;2023-12-14T14:30:34;7.45;;;3.65;;
22308;SDS011;11322;50.858;-1.778;2023-12-14T14:35:34;2.75;;;1.9;;
22308;SDS011;11322;50.858;-1.778;2023-12-14T14:40:34;1.75;;;1.2;;
22308;SDS011;11322;50.858;-1.778;2023-12-14T14:45:34;0.85;;;0.85;;
22308;SDS011;11322;50.858;-1.778;2023-12-14T14:50:34;1.75;;;1.2;;
22308;SDS011;11322;50.858;-1.778;2023-12-14T14:55:34;4.3;;;1.0;;
22308;SDS011;11322;50.858;-1.778;2023-12-14T15:00:34;0.7;;;0.7;;
22308;SDS011;11322;50.858;-1.778;2023-12-14T15:05:34;1.55;;;0.85;;
22308;SDS011;11322;50.858;-1.778;2023-12-14T15:10:34;2.2;;;1.9;;
22308;SDS011;11322;50.858;-1.778;2023-12-14T15:15:34;2.75;;;0.95;;
22308;SDS011;11322;50.858;-1.778;2023-12-14T15:20:34;4.15;;;1.7;;
22308;SDS011;11322;50.858;-1.778;2023-12-14T15:25:34;5.75;;;1.8;;
22308;SDS011;11322;50.858;-1.778;2023-12-14T15:30:34;1.35;;;1.2;;
22308;SDS011;11322;50.858;-1.778;2023-12-14T15:35:34;2.45;;;2.25;;
22308;SDS011;11322;50.858;-1.778;2023-12-14T15:40:34;5.3;;;1.6;;
22308;SDS011;11322;50.858;-1.778;2023-12-14T15:45:34;2.0;;;1.85;;
22308;SDS011;11322;50.858;-1.778;2023-12-14T15:50:34;1.7;;;1.6;;
22308;SDS011;11322;50.858;-1.778;2023-12-14T15:55:34;7.15;;;5.35;;
22308;SDS011;11322;50.858;-1.778;2023-12-14T16:00:34;13.15;;;7.0;;
22308;SDS011;11322;50.858;-1.778;2023-12-14T16:05:34;5.5;;;3.5;;
22308;SDS011;11322;50.858;-1.778;2023-12-14T16:10:34;7.5;;;2.55;;
22308;SDS011;11322;50.858;-1.778;2023-12-14T16:15:34;5.4;;;4.05;;
22308;SDS011;11322;50.858;-1.778;2023-12-14T16:20:34;5.15;;;2.7;;
22308;SDS011;11322;50.858;-1.778;2023-12-14T16:25:34;10.25;;;5.9;;
22308;SDS011;11322;50.858;-1.778;2023-12-14T16:30:34;15.7;;;8.8;;
22308;SDS011;11322;50.858;-1.778;2023-12-14T16:35:34;12.25;;;7.25;;
22308;SDS011;11322;50.858;-1.778;2023-12-14T16:40:34;8.7;;;5.55;;
22308;SDS011;11322;50.858;-1.778;2023-12-14T16:45:34;16.75;;;8.25;;
22308;SDS011;11322;50.858;-1.778;2023-12-14T16:50:34;12.05;;;6.45;;
22308;SDS011;11322;50.858;-1.778;2023-12-14T16:55:34;17.4;;;6.9;;
22308;SDS011;11322;50.858;-1.778;2023-12-14T17:00:34;14.05;;;5.7;;
22308;SDS011;11322;50.858;-1.778;2023-12-14T17:05:34;7.95;;;4.7;;
22308;SDS011;11322;50.858;-1.778;2023-12-14T17:10:34;5.8;;;2.75;;
22308;SDS011;11322;50.858;-1.778;2023-12-14T17:15:34;12.95;;;6.95;;
22308;SDS011;11322;50.858;-1.778;2023-12-14T17:20:34;10.8;;;4.35;;
22308;SDS011;11322;50.858;-1.778;2023-12-14T17:25:34;4.85;;;4.25;;
22308;SDS011;11322;50.858;-1.778;2023-12-14T17:30:34;9.2;;;5.1;;
22308;SDS011;11322;50.858;-1.778;2023-12-14T17:35:34;9.3;;;5.75;;
22308;SDS011;11322;50.858;-1.778;2023-12-14T17:40:34;10.8;;;3.9;;
22308;SDS011;11322;50.858;-1.778;2023-12-14T17:45:34;10.35;;;5.45;;
22308;SDS011;11322;50.858;-1.778;2023-12-14T17:50:34;17.05;;;6.5;;
22308;SDS011;11322;50.858;-1.778;2023-12-14T17:55:34;10.1;;;5.75;;
22308;SDS011;11322;50.858;-1.778;2023-12-14T18:00:34;6.7;;;3.45;;
22308;SDS011;11322;50.858;-1.778;2023-12-14T18:05:34;4.55;;;2.65;;
22308;SDS011;11322;50.858;-1.778;2023-12-14T18:10:36;2.6;;;2.35;;
22308;SDS011;11322;50.858;-1.778;2023-12-14T18:15:34;3.15;;;1.65;;
22308;SDS011;11322;50.858;-1.778;2023-12-14T18:20:34;2.7;;;2.4;;
22308;SDS011;11322;50.858;-1.778;2023-12-14T18:25:34;5.95;;;3.1;;
22308;SDS011;11322;50.858;-1.778;2023-12-14T18:30:34;3.65;;;3.3;;
22308;SDS011;11322;50.858;-1.778;2023-12-14T18:35:34;5.95;;;3.2;;
22308;SDS011;11322;50.858;-1.778;2023-12-14T18:40:34;5.9;;;3.55;;
22308;SDS011;11322;50.858;-1.778;2023-12-14T18:45:34;6.55;;;3.15;;
22308;SDS011;11322;50.858;-1.778;2023-12-14T18:50:34;7.0;;;3.55;;
22308;SDS011;11322;50.858;-1.778;2023-12-14T18:55:34;5.6;;;3.9;;
22308;SDS011;11322;50.858;-1.778;2023-12-14T19:00:34;3.55;;;3.25;;
22308;SDS011;11322;50.858;-1.778;2023-12-14T19:05:34;8.7;;;6.5;;
22308;SDS011;11322;50.858;-1.778;2023-12-14T19:10:34;9.95;;;3.9;;
22308;SDS011;11322;50.858;-1.778;2023-12-14T19:15:34;5.25;;;3.15;;
22308;SDS011;11322;50.858;-1.778;2023-12-14T19:20:34;9.2;;;2.5;;
22308;SDS011;11322;50.858;-1.778;2023-12-14T19:25:34;5.3;;;1.55;;
22308;SDS011;11322;50.858;-1.778;2023-12-14T19:30:34;10.9;;;2.4;;
22308;SDS011;11322;50.858;-1.778;2023-12-14T19:35:34;1.85;;;1.65;;
22308;SDS011;11322;50.858;-1.778;2023-12-14T19:40:34;2.6;;;2.3;;
22308;SDS011;11322;50.858;-1.778;2023-12-14T19:45:34;4.95;;;1.65;;
22308;SDS011;11322;50.858;-1.778;2023-12-14T19:50:34;5.4;;;2.65;;
22308;SDS011;11322;50.858;-1.778;2023-12-14T19:55:34;4.5;;;2.0;;
22308;SDS011;11322;50.858;-1.778;2023-12-14T20:00:34;2.2;;;2.0;;
22308;SDS011;11322;50.858;-1.778;2023-12-14T20:05:34;2.9;;;2.7;;
22308;SDS011;11322;50.858;-1.778;2023-12-14T20:10:34;4.35;;;3.15;;
22308;SDS011;11322;50.858;-1.778;2023-12-14T20:15:34;4.65;;;4.2;;
22308;SDS011;11322;50.858;-1.778;2023-12-14T20:20:34;16.45;;;9.05;;
22308;SDS011;11322;50.858;-1.778;2023-12-14T20:25:34;26.85;;;8.5;;
22308;SDS011;11322;50.858;-1.778;2023-12-14T20:30:34;10.2;;;4.75;;
22308;SDS011;11322;50.858;-1.778;2023-12-14T20:35:34;3.8;;;1.95;;
22308;SDS011;11322;50.858;-1.778;2023-12-14T20:40:34;5.15;;;2.35;;
22308;SDS011;11322;50.858;-1.778;2023-12-14T20:45:34;11.95;;;2.3;;
22308;SDS011;11322;50.858;-1.778;2023-12-14T20:50:34;4.0;;;2.65;;
22308;SDS011;11322;50.858;-1.778;2023-12-14T20:55:34;2.55;;;1.5;;
22308;SDS011;11322;50.858;-1.778;2023-12-14T21:00:34;4.8;;;1.8;;
22308;SDS011;11322;50.858;-1.778;2023-12-14T21:05:34;1.0;;;1.0;;
22308;SDS011;11322;50.858;-1.778;2023-12-14T21:10:34;2.0;;;1.6;;
22308;SDS011;11322;50.858;-1.778;2023-12-14T21:15:34;6.8;;;2.95;;
22308;SDS011;11322;50.858;-1.778;2023-12-14T21:20:34;6.9;;;2.4;;
22308;SDS011;11322;50.858;-1.778;2023-12-14T21:25:34;6.4;;;3.55;;
22308;SDS011;11322;50.858;-1.778;2023-12-14T21:30:34;19.25;;;3.05;;
22308;SDS011;11322;50.858;-1.778;2023-12-14T21:35:34;7.35;;;3.15;;
22308;SDS011;11322;50.858;-1.778;2023-12-14T21:40:34;12.55;;;1.95;;
22308;SDS011;11322;50.858;-1.778;2023-12-14T21:45:34;6.85;;;3.4;;
22308;SDS011;11322;50.858;-1.778;2023-12-14T21:50:34;3.15;;;1.85;;
22308;SDS011;11322;50.858;-1.778;2023-12-14T21:55:34;14.35;;;2.4;;
22308;SDS011;11322;50.858;-1.778;2023-12-14T22:00:34;5.7;;;2.15;;
22308;SDS011;11322;50.858;-1.778;2023-12-14T22:05:34;21.05;;;3.3;;
22308;SDS011;11322;50.858;-1.778;2023-12-14T22:10:34;3.85;;;2.25;;
22308;SDS011;11322;50.858;-1.778;2023-12-14T22:15:34;19.35;;;2.2;;
22308;SDS011;11322;50.858;-1.778;2023-12-14T22:25:34;2.25;;;1.35;;
22308;SDS011;11322;50.858;-1.778;2023-12-14T22:30:34;2.65;;;1.95;;
22308;SDS011;11322;50.858;-1.778;2023-12-14T22:35:34;9.6;;;1.6;;
22308;SDS011;11322;50.858;-1.778;2023-12-14T22:40:34;1.9;;;1.2;;
22308;SDS011;11322;50.858;-1.778;2023-12-14T22:45:34;3.95;;;2.0;;
22308;SDS011;11322;50.858;-1.778;2023-12-14T22:50:34;1.75;;;1.5;;
22308;SDS011;11322;50.858;-1.778;2023-12-14T22:55:34;6.9;;;1.4;;
22308;SDS011;11322;50.858;-1.778;2023-12-14T23:00:34;4.2;;;1.55;;
22308;SDS011;11322;50.858;-1.778;2023-12-14T23:05:34;7.65;;;2.5;;
22308;SDS011;11322;50.858;-1.778;2023-12-14T23:10:34;22.1;;;4.4;;
22308;SDS011;11322;50.858;-1.778;2023-12-14T23:15:34;1.2;;;1.2;;
22308;SDS011;11322;50.858;-1.778;2023-12-14T23:20:34;10.95;;;4.25;;
22308;SDS011;11322;50.858;-1.778;2023-12-14T23:25:34;6.75;;;2.45;;
22308;SDS011;11322;50.858;-1.778;2023-12-14T23:30:34;2.8;;;1.7;;
22308;SDS011;11322;50.858;-1.778;2023-12-14T23:35:34;6.35;;;3.35;;
22308;SDS011;11322;50.858;-1.778;2023-12-14T23:40:34;15.75;;;7.55;;
22308;SDS011;11322;50.858;-1.778;2023-12-14T23:45:34;3.35;;;3.0;;
22308;SDS011;11322;50.858;-1.778;2023-12-14T23:50:34;5.6;;;3.35;;
22308;SDS011;11322;50.858;-1.778;2023-12-14T23:55:34;4.2;;;3.1;;
